createdAt,value
2022-11-26T00:01:55.739Z,14.38
2022-11-26T00:04:23.999Z,14.38
2022-11-26T00:06:52.385Z,14.38
2022-11-26T00:09:25.492Z,14.39
2022-11-26T00:11:53.890Z,14.37
2022-11-26T00:14:23.928Z,14.34
2022-11-26T00:16:52.683Z,14.36
2022-11-26T00:19:21.283Z,14.33
2022-11-26T00:21:49.705Z,14.33
2022-11-26T00:24:27.755Z,14.34
2022-11-26T00:27:01.062Z,14.35
2022-11-26T00:29:33.464Z,14.37
2022-11-26T00:32:03.105Z,14.39
2022-11-26T00:34:31.454Z,14.40
2022-11-26T00:37:00.678Z,14.41
2022-11-26T00:39:29.402Z,14.41
2022-11-26T00:41:59.036Z,14.42
2022-11-26T00:44:28.221Z,14.41
2022-11-26T00:46:59.268Z,14.41
2022-11-26T00:49:30.644Z,14.40
2022-11-26T00:51:59.820Z,14.42
2022-11-26T00:54:29.061Z,14.42
2022-11-26T00:56:59.476Z,14.42
2022-11-26T00:59:39.508Z,14.45
2022-11-26T01:02:11.124Z,14.45
2022-11-26T01:04:40.559Z,14.46
2022-11-26T01:07:11.236Z,14.43
2022-11-26T01:09:40.510Z,14.43
2022-11-26T01:12:15.004Z,14.43
2022-11-26T01:14:44.275Z,14.42
2022-11-26T01:17:15.877Z,14.41
2022-11-26T01:19:44.301Z,14.38
2022-11-26T01:22:22.014Z,14.36
2022-11-26T01:24:51.248Z,14.35
2022-11-26T01:27:21.735Z,14.33
2022-11-26T01:29:50.405Z,14.32
2022-11-26T01:32:29.180Z,14.33
2022-11-26T01:34:58.582Z,14.30
2022-11-26T01:37:27.092Z,14.32
2022-11-26T01:39:55.342Z,14.28
2022-11-26T01:42:31.081Z,14.29
2022-11-26T01:44:59.952Z,14.26
2022-11-26T01:47:32.981Z,14.26
2022-11-26T01:50:49.233Z,14.26
2022-11-26T01:53:26.234Z,14.22
2022-11-26T01:56:00.208Z,14.23
2022-11-26T01:58:39.533Z,14.24
2022-11-26T02:01:09.815Z,14.23
2022-11-26T02:03:45.387Z,14.24
2022-11-26T02:06:19.515Z,14.24
2022-11-26T02:08:48.404Z,14.24
2022-11-26T02:11:20.574Z,14.21
2022-11-26T02:13:52.328Z,14.22
2022-11-26T02:16:30.283Z,14.21
2022-11-26T02:19:23.835Z,14.20
2022-11-26T02:22:01.195Z,14.22
2022-11-26T02:24:48.857Z,14.27
2022-11-26T02:27:47.924Z,14.33
2022-11-26T02:30:19.983Z,14.36
2022-11-26T02:33:03.629Z,14.42
2022-11-26T02:35:43.422Z,14.49
2022-11-26T02:38:15.078Z,14.51
2022-11-26T02:40:43.227Z,14.56
2022-11-26T02:43:12.004Z,14.62
2022-11-26T02:45:45.974Z,14.66
2022-11-26T02:48:21.593Z,14.70
2022-11-26T02:50:54.539Z,14.77
2022-11-26T02:53:24.962Z,14.76
2022-11-26T02:56:03.501Z,14.81
2022-11-26T02:58:33.293Z,14.84
2022-11-26T03:01:07.674Z,14.87
2022-11-26T03:03:40.005Z,14.93
2022-11-26T03:06:12.329Z,14.97
2022-11-26T03:08:40.716Z,14.97
2022-11-26T03:11:09.238Z,14.99
2022-11-26T03:13:37.512Z,15.01
2022-11-26T03:16:08.008Z,15.04
2022-11-26T03:18:43.584Z,15.05
2022-11-26T03:21:13.181Z,15.04
2022-11-26T03:23:41.370Z,15.04
2022-11-26T03:26:09.715Z,15.08
2022-11-26T03:28:37.795Z,15.08
2022-11-26T03:31:07.808Z,15.09
2022-11-26T03:33:36.157Z,15.12
2022-11-26T03:36:05.105Z,15.12
2022-11-26T03:38:33.832Z,15.16
2022-11-26T03:41:04.717Z,15.16
2022-11-26T03:43:32.951Z,15.14
2022-11-26T03:46:01.407Z,15.15
2022-11-26T03:48:31.637Z,15.14
2022-11-26T03:51:00.931Z,15.14
2022-11-26T03:53:29.474Z,15.13
2022-11-26T03:56:00.137Z,15.13
2022-11-26T03:58:28.915Z,15.09
2022-11-26T04:00:57.730Z,15.12
2022-11-26T04:03:27.285Z,15.11
2022-11-26T04:05:57.448Z,15.07
2022-11-26T04:08:26.514Z,15.06
2022-11-26T04:10:54.859Z,15.06
2022-11-26T04:13:23.092Z,15.07
2022-11-26T04:15:52.623Z,15.06
2022-11-26T04:18:21.117Z,15.08
2022-11-26T04:20:53.040Z,15.09
2022-11-26T04:23:23.352Z,15.07
2022-11-26T04:25:51.746Z,15.05
2022-11-26T04:28:20.237Z,15.07
2022-11-26T04:30:48.589Z,15.05
2022-11-26T04:33:17.349Z,15.05
2022-11-26T04:35:45.874Z,15.08
2022-11-26T04:38:14.547Z,15.10
2022-11-26T04:40:44.720Z,15.09
2022-11-26T04:43:13.453Z,15.12
2022-11-26T04:45:41.686Z,15.14
2022-11-26T04:48:09.969Z,15.19
2022-11-26T04:50:38.588Z,15.18
2022-11-26T04:53:06.876Z,15.19
2022-11-26T04:55:35.151Z,15.20
2022-11-26T04:58:04.872Z,15.23
2022-11-26T05:00:33.448Z,15.25
2022-11-26T05:03:01.639Z,15.27
2022-11-26T05:05:30.129Z,15.30
2022-11-26T05:07:58.885Z,15.30
2022-11-26T05:10:27.035Z,15.33
2022-11-26T05:12:55.340Z,15.33
2022-11-26T05:15:25.431Z,15.34
2022-11-26T05:17:54.104Z,15.33
2022-11-26T05:20:22.526Z,15.33
2022-11-26T05:22:51.286Z,15.33
2022-11-26T05:25:20.705Z,15.33
2022-11-26T05:27:49.094Z,15.31
2022-11-26T05:30:18.057Z,15.31
2022-11-26T05:32:47.879Z,15.35
2022-11-26T05:35:16.320Z,15.34
2022-11-26T05:37:44.956Z,15.35
2022-11-26T05:40:14.475Z,15.36
2022-11-26T05:42:43.642Z,15.35
2022-11-26T05:45:12.493Z,15.34
2022-11-26T05:47:41.015Z,15.33
2022-11-26T05:50:17.085Z,15.33
2022-11-26T05:52:45.475Z,15.34
2022-11-26T05:55:14.354Z,15.32
2022-11-26T05:57:43.053Z,15.32
2022-11-26T06:00:12.790Z,15.31
2022-11-26T06:02:42.525Z,15.32
2022-11-26T06:05:15.262Z,15.27
2022-11-26T06:07:46.768Z,15.32
2022-11-26T06:10:15.943Z,15.32
2022-11-26T06:12:45.039Z,15.30
2022-11-26T06:15:13.652Z,15.29
2022-11-26T06:17:42.668Z,15.28
2022-11-26T06:20:14.477Z,15.29
2022-11-26T06:22:44.952Z,15.28
2022-11-26T06:25:15.497Z,15.28
2022-11-26T06:27:44.813Z,15.26
2022-11-26T06:30:17.227Z,15.26
2022-11-26T06:32:45.563Z,15.24
2022-11-26T06:35:15.967Z,15.28
2022-11-26T06:37:45.381Z,15.26
2022-11-26T06:40:19.088Z,15.24
2022-11-26T06:42:50.508Z,15.27
2022-11-26T06:45:19.336Z,15.28
2022-11-26T06:47:49.018Z,15.26
2022-11-26T06:50:20.465Z,15.28
2022-11-26T06:52:52.819Z,15.23
2022-11-26T06:55:22.257Z,15.23
2022-11-26T06:57:52.291Z,15.23
2022-11-26T07:00:22.785Z,15.24
2022-11-26T07:02:51.215Z,15.19
2022-11-26T07:05:23.635Z,15.19
2022-11-26T07:07:52.129Z,15.17
2022-11-26T07:10:21.330Z,15.17
2022-11-26T07:12:50.522Z,15.17
2022-11-26T07:15:19.753Z,15.16
2022-11-26T07:17:49.354Z,15.16
2022-11-26T07:20:19.535Z,15.15
2022-11-26T07:22:50.693Z,15.17
2022-11-26T07:25:19.871Z,15.15
2022-11-26T07:27:54.182Z,15.18
2022-11-26T07:30:23.936Z,15.18
2022-11-26T07:32:54.371Z,15.22
2022-11-26T07:35:22.646Z,15.26
2022-11-26T07:37:54.058Z,15.32
2022-11-26T07:40:23.813Z,15.33
2022-11-26T07:42:55.927Z,15.38
2022-11-26T07:45:24.807Z,15.39
2022-11-26T07:47:53.840Z,15.41
2022-11-26T07:50:22.743Z,15.46
2022-11-26T07:52:55.975Z,15.49
2022-11-26T07:55:24.344Z,15.53
2022-11-26T07:57:52.898Z,15.56
2022-11-26T08:00:25.459Z,15.59
2022-11-26T08:02:55.282Z,15.63
2022-11-26T08:05:26.410Z,15.68
2022-11-26T08:07:59.848Z,15.72
2022-11-26T08:10:30.469Z,15.80
2022-11-26T08:12:59.404Z,15.85
2022-11-26T08:15:28.858Z,15.88
2022-11-26T08:17:58.142Z,15.96
2022-11-26T08:20:29.455Z,15.98
2022-11-26T08:23:09.453Z,15.98
2022-11-26T08:25:53.472Z,16.04
2022-11-26T08:28:29.906Z,16.09
2022-11-26T08:31:03.406Z,16.14
2022-11-26T08:33:35.561Z,16.16
2022-11-26T08:36:08.038Z,16.20
2022-11-26T08:38:39.393Z,16.28
2022-11-26T08:41:16.297Z,16.30
2022-11-26T08:44:05.829Z,16.31
2022-11-26T08:46:35.234Z,16.33
2022-11-26T08:49:04.665Z,16.37
2022-11-26T08:51:45.536Z,16.36
2022-11-26T08:54:18.623Z,16.38
2022-11-26T08:56:47.174Z,16.40
2022-11-26T08:59:16.322Z,16.43
2022-11-26T09:01:46.321Z,16.47
2022-11-26T09:04:14.603Z,16.48
2022-11-26T09:06:42.938Z,16.51
2022-11-26T09:09:15.567Z,16.57
2022-11-26T09:11:51.053Z,16.58
2022-11-26T09:14:23.400Z,16.65
2022-11-26T09:16:55.622Z,16.64
2022-11-26T09:19:28.946Z,16.67
2022-11-26T09:22:01.306Z,16.75
2022-11-26T09:24:31.143Z,16.76
2022-11-26T09:27:07.347Z,16.78
2022-11-26T09:29:36.425Z,16.83
2022-11-26T09:32:25.344Z,16.83
2022-11-26T09:34:55.419Z,16.87
2022-11-26T09:37:24.046Z,16.91
2022-11-26T09:39:55.064Z,16.93
2022-11-26T09:42:36.981Z,16.91
2022-11-26T09:45:15.181Z,16.95
2022-11-26T09:47:48.212Z,16.97
2022-11-26T09:50:31.984Z,17.01
2022-11-26T09:53:06.549Z,17.03
2022-11-26T09:55:37.138Z,17.08
2022-11-26T09:58:25.277Z,17.08
2022-11-26T10:00:59.782Z,17.10
2022-11-26T10:03:37.365Z,17.11
2022-11-26T10:06:11.137Z,17.13
2022-11-26T10:12:25.591Z,17.16
2022-11-26T10:15:05.843Z,17.15
2022-11-26T10:17:56.430Z,17.16
2022-11-26T10:20:56.003Z,17.19
2022-11-26T10:23:33.393Z,17.20
2022-11-26T10:26:18.145Z,17.22
2022-11-26T10:28:50.805Z,17.24
2022-11-26T10:31:28.992Z,17.25
2022-11-26T10:34:03.338Z,17.31
2022-11-26T10:36:37.491Z,17.34
2022-11-26T10:39:10.305Z,17.40
2022-11-26T10:41:40.749Z,17.41
2022-11-26T10:44:43.129Z,17.41
2022-11-26T10:47:35.470Z,17.40
2022-11-26T10:53:23.816Z,17.40
2022-11-26T10:55:58.909Z,17.42
2022-11-26T10:58:31.164Z,17.46
2022-11-26T11:01:07.115Z,17.44
2022-11-26T11:06:42.595Z,17.40
2022-11-26T11:09:32.816Z,17.39
2022-11-26T11:12:27.043Z,17.43
2022-11-26T11:18:11.000Z,17.39
2022-11-26T11:21:04.396Z,17.36
2022-11-26T11:24:06.550Z,17.36
2022-11-26T11:39:43.953Z,17.19
2022-11-26T11:42:39.855Z,17.17
2022-11-26T11:54:43.967Z,17.16
2022-11-26T12:58:19.295Z,16.94
2022-11-26T13:07:17.908Z,16.99
2022-11-26T13:10:24.066Z,17.03
2022-11-26T13:56:58.780Z,17.02
2022-11-26T13:59:38.231Z,17.03
2022-11-26T14:02:45.056Z,17.06
2022-11-26T14:05:21.946Z,17.05
2022-11-26T14:10:48.399Z,17.14
2022-11-26T14:13:20.665Z,17.12
2022-11-26T14:16:08.573Z,17.14
2022-11-26T14:22:51.179Z,17.07
2022-11-26T14:25:56.878Z,17.07
2022-11-26T14:29:06.482Z,17.06
2022-11-26T14:31:37.710Z,17.09
2022-11-26T14:37:23.422Z,17.08
2022-11-26T14:40:35.824Z,17.09
2022-11-26T14:43:21.403Z,17.11
2022-11-26T14:46:19.996Z,17.15
2022-11-26T14:49:14.074Z,17.23
2022-11-26T14:51:47.117Z,17.22
2022-11-26T14:54:22.417Z,17.24
2022-11-26T14:57:13.991Z,17.23
2022-11-26T14:59:59.515Z,17.21
2022-11-26T15:05:30.386Z,17.20
2022-11-26T15:08:15.195Z,17.23
2022-11-26T15:11:24.940Z,17.25
2022-11-26T15:14:10.082Z,17.25
2022-11-26T15:16:48.924Z,17.22
2022-11-26T15:19:31.930Z,17.24
2022-11-26T15:22:12.993Z,17.22
2022-11-26T15:24:44.028Z,17.25
2022-11-26T15:27:38.536Z,17.26
2022-11-26T15:30:31.734Z,17.26
2022-11-26T15:33:09.702Z,17.29
2022-11-26T15:35:42.336Z,17.29
2022-11-26T15:38:20.750Z,17.30
2022-11-26T15:41:07.426Z,17.29
2022-11-26T15:43:46.516Z,17.25
2022-11-26T15:46:23.074Z,17.21
2022-11-26T15:51:52.333Z,17.21
2022-11-26T15:57:39.924Z,17.13
2022-11-26T16:07:58.005Z,17.05
2022-11-26T16:16:46.776Z,17.05
2022-11-26T16:19:31.192Z,17.07
2022-11-26T16:32:59.469Z,17.02
2022-11-26T16:39:15.508Z,17.05
2022-11-26T16:41:59.125Z,17.09
2022-11-26T16:44:44.579Z,17.07
2022-11-26T16:53:27.302Z,17.11
2022-11-26T17:00:33.875Z,17.13
2022-11-26T17:08:36.477Z,17.20
2022-11-26T17:11:06.968Z,17.21
2022-11-26T17:13:41.859Z,17.23
2022-11-26T17:16:40.258Z,17.22
2022-11-26T17:19:22.526Z,17.24
2022-11-26T17:21:55.157Z,17.21
2022-11-26T17:24:40.859Z,17.27
2022-11-26T17:27:29.149Z,17.24
2022-11-26T17:30:11.243Z,17.28
2022-11-26T17:32:45.732Z,17.24
2022-11-26T17:35:29.647Z,17.24
2022-11-26T17:41:35.012Z,17.22
2022-11-26T17:44:20.437Z,17.24
2022-11-26T17:49:47.760Z,17.32
2022-11-26T17:52:44.907Z,17.30
2022-11-26T17:55:28.102Z,17.35
2022-11-26T17:57:59.285Z,17.39
2022-11-26T18:00:52.841Z,17.41
2022-11-26T18:03:26.030Z,17.40
2022-11-26T18:06:02.396Z,17.39
2022-11-26T18:08:36.407Z,17.38
2022-11-26T18:11:06.431Z,17.42
2022-11-26T18:13:54.720Z,17.42
2022-11-26T18:16:27.569Z,17.43
2022-11-26T18:19:18.918Z,17.48
2022-11-26T18:21:55.966Z,17.47
2022-11-26T18:24:25.398Z,17.46
2022-11-26T18:27:05.487Z,17.54
2022-11-26T18:29:41.005Z,17.55
2022-11-26T18:32:12.490Z,17.55
2022-11-26T18:34:41.072Z,17.57
2022-11-26T18:37:42.804Z,17.56
2022-11-26T18:40:25.133Z,17.57
2022-11-26T18:43:02.123Z,17.60
2022-11-26T18:45:33.184Z,17.60
2022-11-26T18:48:04.254Z,17.60
2022-11-26T18:50:34.239Z,17.58
2022-11-26T18:53:09.683Z,17.64
2022-11-26T19:09:22.702Z,17.51
2022-11-26T19:15:44.552Z,17.52
2022-11-26T19:31:56.190Z,17.45
2022-11-26T19:52:06.180Z,17.46
2022-11-26T19:55:01.956Z,17.48
2022-11-26T19:58:15.311Z,17.52
2022-11-26T20:01:24.099Z,17.50
2022-11-26T20:04:34.264Z,17.52
2022-11-26T20:07:06.194Z,17.51
2022-11-26T20:12:51.949Z,17.52
2022-11-26T20:15:22.808Z,17.49
2022-11-26T20:17:51.217Z,17.52
2022-11-26T20:20:35.474Z,17.56
2022-11-26T20:23:06.747Z,17.59
2022-11-26T20:25:41.136Z,17.62
2022-11-26T20:28:16.530Z,17.66
2022-11-26T20:31:19.438Z,17.67
2022-11-26T20:40:41.468Z,17.75
2022-11-26T20:49:41.418Z,17.86
2022-11-26T20:55:37.380Z,17.92
2022-11-26T20:58:16.693Z,17.91
2022-11-26T21:00:45.047Z,17.95
2022-11-26T21:03:17.954Z,17.92
2022-11-26T21:06:29.527Z,17.95
2022-11-26T21:18:18.149Z,17.99
2022-11-26T21:27:37.313Z,18.06
2022-11-26T21:39:37.514Z,18.12
2022-11-26T21:45:13.153Z,18.30
2022-11-26T21:48:07.662Z,18.38
2022-11-26T21:50:44.143Z,18.36
2022-11-26T21:53:26.942Z,18.42
2022-11-26T21:56:19.704Z,18.42
2022-11-26T21:58:51.133Z,18.39
2022-11-26T22:01:22.193Z,18.42
2022-11-26T22:06:40.725Z,18.37
2022-11-26T22:09:15.189Z,18.37
2022-11-26T22:12:13.276Z,18.35
2022-11-26T22:14:45.357Z,18.33
2022-11-26T22:17:15.785Z,18.34
2022-11-26T22:19:44.816Z,18.29
2022-11-26T22:22:13.161Z,18.33
2022-11-26T22:24:42.145Z,18.28
2022-11-26T22:27:12.312Z,18.25
2022-11-26T22:29:41.766Z,18.27
2022-11-26T22:32:12.637Z,18.31
2022-11-26T22:34:41.020Z,18.28
2022-11-26T22:37:10.691Z,18.25
2022-11-26T22:39:41.418Z,18.23
2022-11-26T22:42:14.080Z,18.27
2022-11-26T22:44:44.047Z,18.30
2022-11-26T22:47:12.168Z,18.27
2022-11-26T22:49:40.668Z,18.27
2022-11-26T22:52:09.003Z,18.30
2022-11-26T22:54:37.077Z,18.34
2022-11-26T22:57:05.414Z,18.32
2022-11-26T22:59:38.158Z,18.34
2022-11-26T23:02:07.220Z,18.36
2022-11-26T23:04:35.922Z,18.36
2022-11-26T23:07:06.437Z,18.35
2022-11-26T23:09:35.225Z,18.34
2022-11-26T23:12:03.410Z,18.31
2022-11-26T23:14:32.978Z,18.31
2022-11-26T23:17:03.417Z,18.30
2022-11-26T23:19:32.025Z,18.31
2022-11-26T23:22:00.175Z,18.32
2022-11-26T23:24:31.990Z,18.28
2022-11-26T23:27:01.778Z,18.20
2022-11-26T23:29:29.941Z,18.23
2022-11-26T23:31:58.222Z,18.20
2022-11-26T23:34:27.742Z,18.18
2022-11-26T23:36:56.013Z,18.19
2022-11-26T23:39:24.780Z,18.13
2022-11-26T23:41:52.897Z,18.14
2022-11-26T23:44:21.091Z,18.11
2022-11-26T23:46:49.524Z,18.13
2022-11-26T23:49:19.731Z,18.07
2022-11-26T23:51:50.453Z,18.08
2022-11-26T23:54:18.574Z,18.10
2022-11-26T23:56:49.040Z,18.12
2022-11-26T23:59:18.537Z,18.11
